Time;durP1;ratioP1;P1;durP2;ratioP2;P2;SDS_P1;SDS_P2;PMS_P1;PMS_P2;Temp;Humidity;BMP_temperature;BMP_pressure;BME280_temperature;BME280_humidity;BME280_pressure;Samples;Min_cycle;Max_cycle;Signal;HPM_P1;HPM_P2
2022/03/03 00:01:39;;;;;;;5.90;3.27;;;18.60;40.20;;;;;;5043042;28;88531;-65
2022/03/03 00:04:07;;;;;;;4.13;2.77;;;18.60;40.20;;;;;;5042677;28;88610;-64
2022/03/03 00:06:35;;;;;;;3.07;2.10;;;18.60;40.20;;;;;;5041804;28;90803;-65
2022/03/03 00:09:03;;;;;;;3.97;2.77;;;18.60;40.20;;;;;;5039357;28;89403;-64
2022/03/03 00:11:31;;;;;;;4.07;2.77;;;18.60;40.20;;;;;;5021913;28;90151;-64
2022/03/03 00:13:59;;;;;;;5.17;2.67;;;18.60;40.20;;;;;;5022919;28;88297;-65
2022/03/03 00:16:27;;;;;;;2.47;2.17;;;18.60;40.20;;;;;;5022382;28;90698;-65
2022/03/03 00:18:56;;;;;;;3.10;2.40;;;18.60;40.20;;;;;;5025195;28;89928;-65
2022/03/03 00:21:24;;;;;;;8.60;2.70;;;18.60;40.20;;;;;;5042592;28;89048;-65
2022/03/03 00:23:52;;;;;;;2.60;2.23;;;18.60;40.10;;;;;;5043018;28;88546;-64
2022/03/03 00:26:20;;;;;;;4.27;2.50;;;18.50;40.10;;;;;;5042935;28;89477;-65
2022/03/03 00:28:48;;;;;;;3.13;2.30;;;18.50;40.10;;;;;;5040341;28;90076;-65
2022/03/03 00:31:16;;;;;;;2.87;2.23;;;18.50;40.10;;;;;;5021694;28;88891;-64
2022/03/03 00:33:45;;;;;;;3.67;2.40;;;18.50;40.10;;;;;;5021836;28;88990;-64
2022/03/03 00:36:14;;;;;;;3.53;2.60;;;18.50;40.10;;;;;;5021309;28;90730;-64
2022/03/03 00:38:42;;;;;;;3.23;2.67;;;18.50;40.00;;;;;;5025359;28;90537;-65
2022/03/03 00:41:10;;;;;;;3.20;2.27;;;18.50;40.00;;;;;;5041864;28;88914;-65
2022/03/03 00:43:38;;;;;;;3.80;2.30;;;18.50;40.00;;;;;;5042182;28;88487;-65
2022/03/03 00:46:06;;;;;;;2.97;2.50;;;18.50;40.00;;;;;;5041237;28;90829;-65
2022/03/03 00:48:34;;;;;;;4.63;2.57;;;18.50;40.00;;;;;;5038563;28;90053;-65
2022/03/03 00:51:06;;;;;;;3.27;2.37;;;18.50;40.00;;;;;;5021754;28;88605;-65
2022/03/03 00:53:36;;;;;;;3.17;2.40;;;18.50;40.00;;;;;;5021594;28;88490;-65
2022/03/03 00:56:05;;;;;;;4.80;2.43;;;18.40;39.90;;;;;;5021743;28;91118;-65
2022/03/03 00:58:33;;;;;;;4.20;2.13;;;18.40;39.90;;;;;;5025556;28;89981;-65
2022/03/03 01:01:01;;;;;;;4.63;2.87;;;18.40;39.80;;;;;;5041273;28;89817;-66
2022/03/03 01:03:30;;;;;;;2.60;2.00;;;18.40;39.80;;;;;;5041395;28;89237;-65
2022/03/03 01:05:58;;;;;;;4.50;2.90;;;18.40;39.80;;;;;;5040528;27;89480;-65
2022/03/03 01:08:26;;;;;;;4.00;2.83;;;18.40;39.80;;;;;;5037392;28;89603;-66
2022/03/03 01:10:55;;;;;;;3.53;2.83;;;18.40;39.80;;;;;;5021373;28;91531;-65
2022/03/03 01:13:23;;;;;;;3.90;2.27;;;18.40;39.80;;;;;;5021851;28;88465;-65
2022/03/03 01:15:53;;;;;;;3.67;2.80;;;18.40;39.80;;;;;;5020733;28;90802;-65
2022/03/03 01:18:21;;;;;;;3.97;2.97;;;18.40;39.80;;;;;;5023291;28;92686;-65
2022/03/03 01:20:49;;;;;;;2.77;2.03;;;18.40;39.80;;;;;;5041630;28;89129;-65
2022/03/03 01:23:17;;;;;;;4.63;2.80;;;18.40;39.70;;;;;;5041335;28;88436;-65
2022/03/03 01:25:45;;;;;;;3.60;2.63;;;18.40;39.70;;;;;;5041497;28;90712;-65
2022/03/03 01:28:14;;;;;;;4.23;2.50;;;18.40;39.70;;;;;;5025436;28;90024;-65
2022/03/03 01:30:43;;;;;;;3.97;2.37;;;18.40;39.70;;;;;;5021353;28;88970;-65
2022/03/03 01:33:12;;;;;;;3.33;2.43;;;18.40;39.70;;;;;;5020893;28;88478;-66
2022/03/03 01:35:40;;;;;;;3.57;2.80;;;18.30;39.60;;;;;;5020594;28;90700;-65
2022/03/03 01:38:08;;;;;;;4.03;2.77;;;18.30;39.60;;;;;;5034567;28;90080;-65
2022/03/03 01:40:36;;;;;;;4.57;2.37;;;18.30;39.60;;;;;;5040214;28;88861;-65
2022/03/03 01:43:04;;;;;;;5.70;2.40;;;18.30;39.60;;;;;;5040796;28;88411;-66
2022/03/03 01:45:33;;;;;;;3.93;2.17;;;18.30;39.60;;;;;;5041335;28;89583;-66
2022/03/03 01:48:01;;;;;;;7.90;2.77;;;18.30;39.60;;;;;;5026726;28;90156;-66
2022/03/03 01:50:29;;;;;;;4.47;2.83;;;18.30;39.60;;;;;;5021231;28;88711;-66
2022/03/03 01:52:57;;;;;;;4.57;2.43;;;18.30;39.60;;;;;;5020872;28;88493;-66
2022/03/03 01:55:25;;;;;;;3.73;2.40;;;18.30;39.60;;;;;;5020700;28;90644;-65
2022/03/03 01:57:53;;;;;;;2.90;2.50;;;18.30;39.60;;;;;;5034122;28;90199;-65
2022/03/03 02:00:21;;;;;;;5.13;2.50;;;18.30;39.60;;;;;;5040635;28;89060;-65
2022/03/03 02:02:51;;;;;;;3.80;2.30;;;18.30;39.60;;;;;;5041106;28;88467;-66
2022/03/03 02:05:19;;;;;;;3.70;3.00;;;18.30;39.60;;;;;;5041056;28;90646;-65
2022/03/03 02:07:47;;;;;;;3.10;2.40;;;18.30;39.60;;;;;;5027029;28;89267;-66
2022/03/03 02:10:15;;;;;;;2.87;1.93;;;18.30;39.50;;;;;;5020706;28;88807;-66
2022/03/03 02:12:43;;;;;;;5.00;2.70;;;18.30;39.50;;;;;;5020037;28;88489;-65
2022/03/03 02:15:16;;;;;;;5.47;2.43;;;18.20;39.50;;;;;;5020648;28;90824;-65
2022/03/03 02:17:44;;;;;;;4.37;2.60;;;18.20;39.40;;;;;;5031316;28;90392;-65
2022/03/03 02:20:20;;;;;;;4.20;2.43;;;18.30;39.50;;;;;;5040482;28;88402;-65
2022/03/03 02:22:48;;;;;;;2.43;2.23;;;18.20;49.80;;;;;;5040834;28;88621;-65
2022/03/03 02:25:16;;;;;;;3.60;2.70;;;18.20;39.50;;;;;;5040288;28;90675;-64
2022/03/03 02:27:44;;;;;;;3.50;2.30;;;18.20;39.40;;;;;;5028222;28;90404;-64
2022/03/03 02:30:12;;;;;;;3.83;2.67;;;18.20;39.40;;;;;;5020285;28;89515;-64
2022/03/03 02:32:40;;;;;;;3.03;2.53;;;18.20;39.40;;;;;;5019579;28;89738;-64
2022/03/03 02:35:09;;;;;;;2.97;2.37;;;18.20;39.40;;;;;;5019818;28;90622;-64
2022/03/03 02:37:39;;;;;;;4.20;3.13;;;18.20;39.40;;;;;;5030434;28;90009;-64
2022/03/03 02:40:09;;;;;;;8.60;2.77;;;18.20;39.40;;;;;;5040109;28;88667;-65
2022/03/03 02:42:37;;;;;;;4.67;3.00;;;18.10;39.40;;;;;;5040346;28;88480;-65
2022/03/03 02:45:06;;;;;;;4.97;3.13;;;18.10;39.40;;;;;;5040016;28;90634;-64
2022/03/03 02:47:34;;;;;;;3.00;2.43;;;18.10;39.40;;;;;;5026998;28;89408;-65
2022/03/03 02:50:02;;;;;;;4.83;2.83;;;18.20;39.40;;;;;;5020264;28;89878;-66
2022/03/03 02:52:30;;;;;;;3.57;2.60;;;18.10;39.30;;;;;;5020124;28;88551;-65
2022/03/03 02:54:59;;;;;;;3.40;2.67;;;18.10;39.30;;;;;;5020026;28;90739;-65
2022/03/03 03:00:14;;;;;;;3.93;2.53;;;18.10;39.30;;;;;;5040210;28;88897;-65
2022/03/03 03:02:42;;;;;;;4.70;2.13;;;18.10;39.30;;;;;;5040210;28;88323;-65
2022/03/03 03:05:10;;;;;;;2.87;2.50;;;18.10;39.30;;;;;;5039708;28;90772;-65
2022/03/03 03:07:38;;;;;;;4.43;2.00;;;18.10;39.30;;;;;;5024379;28;90093;-65
2022/03/03 03:10:08;;;;;;;3.87;2.57;;;18.10;39.30;;;;;;5019626;28;88394;-65
2022/03/03 03:12:36;;;;;;;3.03;1.97;;;18.10;39.30;;;;;;5019844;28;88437;-65
2022/03/03 03:15:05;;;;;;;2.97;2.67;;;18.10;39.30;;;;;;5019549;28;90640;-66
2022/03/03 03:17:33;;;;;;;5.63;2.60;;;;;;;;;;5032202;28;90055;-66
2022/03/03 03:20:01;;;;;;;5.60;2.67;;;18.10;38.70;;;;;;5039945;28;88283;-65
2022/03/03 03:22:29;;;;;;;3.03;2.33;;;18.10;39.20;;;;;;5039838;28;88459;-66
2022/03/03 03:24:57;;;;;;;3.10;2.30;;;18.10;39.20;;;;;;5039438;28;90656;-66
2022/03/03 03:27:27;;;;;;;3.60;2.63;;;18.10;39.20;;;;;;5024318;28;88575;-65
2022/03/03 03:29:55;;;;;;;3.27;2.70;;;18.10;39.20;;;;;;5023228;28;90221;-65
2022/03/03 03:32:23;;;;;;;3.20;2.40;;;18.10;39.20;;;;;;5023663;28;88516;-65
2022/03/03 03:34:51;;;;;;;3.10;2.33;;;18.10;39.30;;;;;;5023112;28;90690;-65
2022/03/03 03:37:19;;;;;;;3.03;2.13;;;18.10;39.20;;;;;;5035795;28;90114;-66
2022/03/03 03:39:47;;;;;;;3.17;2.30;;;18.10;39.20;;;;;;5042984;28;88889;-65
2022/03/03 03:42:15;;;;;;;3.97;2.73;;;18.00;39.10;;;;;;5043160;28;88381;-66
2022/03/03 03:44:44;;;;;;;3.40;2.70;;;18.00;39.10;;;;;;5042878;28;90699;-66
2022/03/03 03:47:13;;;;;;;3.10;2.77;;;18.00;39.10;;;;;;5026812;28;89742;-66
2022/03/03 03:49:41;;;;;;;4.23;2.87;;;18.00;39.10;;;;;;5022644;28;89240;-64
2022/03/03 03:52:09;;;;;;;4.03;2.40;;;18.00;39.10;;;;;;5022339;28;88410;-65
2022/03/03 03:54:37;;;;;;;3.03;2.03;;;18.00;39.10;;;;;;5022600;28;90680;-66
2022/03/03 03:57:05;;;;;;;4.10;2.40;;;18.00;39.10;;;;;;5025186;28;90012;-66
2022/03/03 03:59:33;;;;;;;3.13;2.43;;;18.00;39.10;;;;;;5023087;28;88870;-65
2022/03/03 04:02:03;;;;;;;4.00;2.57;;;18.00;39.10;;;;;;5022639;28;88459;-65
2022/03/03 04:04:31;;;;;;;2.10;1.83;;;18.00;39.10;;;;;;5022416;28;90531;-65
2022/03/03 04:06:59;;;;;;;3.07;2.43;;;18.00;39.10;;;;;;5037759;28;90551;-66
2022/03/03 04:09:27;;;;;;;4.70;2.80;;;18.00;39.10;;;;;;5035596;28;88964;-65
2022/03/03 04:11:55;;;;;;;3.70;2.40;;;18.00;39.10;;;;;;5022335;28;88285;-66
2022/03/03 04:14:23;;;;;;;3.33;2.23;;;18.00;39.10;;;;;;5021759;28;89810;-65
2022/03/03 04:16:51;;;;;;;4.30;2.60;;;18.00;39.10;;;;;;5036269;28;88960;-64
2022/03/03 04:19:20;;;;;;;3.00;2.50;;;17.90;39.00;;;;;;5042326;28;90091;-64
2022/03/03 04:21:48;;;;;;;3.43;2.20;;;17.90;39.00;;;;;;5042075;28;88434;-64
2022/03/03 04:24:16;;;;;;;2.57;2.20;;;17.90;38.90;;;;;;5041678;28;90718;-64
2022/03/03 04:26:44;;;;;;;2.97;2.50;;;17.90;39.00;;;;;;5033191;28;89971;-64
2022/03/03 04:29:12;;;;;;;2.63;2.20;;;17.90;39.00;;;;;;5042287;28;88988;-65
2022/03/03 04:31:40;;;;;;;2.30;1.97;;;17.90;38.90;;;;;;5042248;28;88503;-65
2022/03/03 04:34:08;;;;;;;3.20;2.00;;;17.90;38.90;;;;;;5041456;28;89553;-65
2022/03/03 04:36:37;;;;;;;3.97;2.20;;;17.90;38.90;;;;;;5030234;28;90138;-66
2022/03/03 04:39:05;;;;;;;3.60;2.27;;;17.90;38.90;;;;;;5021081;28;88994;-65
2022/03/03 04:41:33;;;;;;;3.03;2.27;;;17.90;38.90;;;;;;5021341;28;88491;-66
2022/03/03 04:44:01;;;;;;;4.03;2.33;;;17.90;39.60;;;;;;5021419;28;91044;-65
2022/03/03 04:46:29;;;;;;;2.70;2.00;;;17.90;38.90;;;;;;5035070;28;88847;-65
2022/03/03 04:48:59;;;;;;;2.30;1.90;;;17.90;38.90;;;;;;5041245;28;88636;-65
2022/03/03 04:51:27;;;;;;;2.73;2.07;;;17.90;38.90;;;;;;5042292;28;88452;-65
2022/03/03 04:53:57;;;;;;;3.20;2.50;;;17.90;38.90;;;;;;5041734;28;90706;-66
2022/03/03 04:56:25;;;;;;;2.87;2.27;;;17.80;38.90;;;;;;5030006;28;90174;-65
2022/03/03 04:58:53;;;;;;;2.77;2.20;;;17.80;38.80;;;;;;5036479;28;88941;-65
2022/03/03 05:01:21;;;;;;;2.67;2.03;;;17.80;38.90;;;;;;5041400;28;88123;-65
2022/03/03 05:03:49;;;;;;;2.83;2.23;;;17.80;38.90;;;;;;5041259;28;90595;-65
2022/03/03 05:06:17;;;;;;;3.83;2.30;;;17.80;38.90;;;;;;5026983;28;90026;-65
2022/03/03 05:08:45;;;;;;;3.20;2.23;;;17.80;38.90;;;;;;5020983;28;88700;-64
2022/03/03 05:11:15;;;;;;;2.90;2.03;;;17.80;38.90;;;;;;5021143;28;88552;-65
2022/03/03 05:13:43;;;;;;;3.13;1.90;;;17.80;38.90;;;;;;5020762;28;90599;-64
2022/03/03 05:16:11;;;;;;;2.73;2.23;;;17.80;38.90;;;;;;5033752;28;90153;-64
2022/03/03 05:18:39;;;;;;;2.23;2.03;;;17.80;38.90;;;;;;5041288;28;88230;-65
2022/03/03 05:21:07;;;;;;;2.60;2.30;;;17.80;38.90;;;;;;5041505;28;88521;-65
2022/03/03 05:23:35;;;;;;;2.43;1.90;;;17.80;38.90;;;;;;5041167;28;90749;-64
2022/03/03 05:26:03;;;;;;;2.53;2.20;;;17.80;38.90;;;;;;5026954;28;90367;-64
2022/03/03 05:28:32;;;;;;;2.10;1.73;;;17.80;38.90;;;;;;5021237;28;88852;-65
2022/03/03 05:31:00;;;;;;;2.20;2.00;;;17.80;38.90;;;;;;5021152;28;88415;-64
2022/03/03 05:33:29;;;;;;;2.27;2.00;;;17.80;38.90;;;;;;5020960;28;90150;-64
2022/03/03 05:35:59;;;;;;;4.87;2.13;;;17.80;38.90;;;;;;5033944;28;89970;-64
2022/03/03 05:38:30;;;;;;;2.83;1.83;;;17.70;38.80;;;;;;5041255;28;88341;-64
2022/03/03 05:40:58;;;;;;;2.87;1.80;;;17.70;38.80;;;;;;5041054;28;88241;-65
2022/03/03 05:43:26;;;;;;;4.07;2.40;;;17.70;38.80;;;;;;5040583;28;89472;-65
2022/03/03 05:45:56;;;;;;;2.27;1.90;;;17.70;38.80;;;;;;5025515;28;89989;-64
2022/03/03 05:48:25;;;;;;;3.10;1.93;;;17.70;38.80;;;;;;5020897;28;88862;-64
2022/03/03 05:50:53;;;;;;;3.30;2.07;;;17.70;38.80;;;;;;5020845;28;89191;-65
2022/03/03 05:53:22;;;;;;;4.63;2.40;;;17.70;39.40;;;;;;5019965;28;90758;-64
2022/03/03 05:55:52;;;;;;;2.27;1.93;;;17.70;38.80;;;;;;5027940;28;90140;-66
2022/03/03 05:58:26;;;;;;;3.77;1.97;;;17.70;38.80;;;;;;5035866;28;90154;-65
2022/03/03 06:00:58;;;;;;;3.30;1.90;;;17.70;38.80;;;;;;5041168;28;88591;-64
2022/03/03 06:03:34;;;;;;;2.50;1.90;;;17.70;38.80;;;;;;5041816;28;90705;-65
2022/03/03 06:06:06;;;;;;;3.37;2.47;;;17.70;38.80;;;;;;5022817;28;90459;-64
2022/03/03 06:08:39;;;;;;;2.53;2.07;;;17.70;38.80;;;;;;5021549;28;88333;-65
2022/03/03 06:11:11;;;;;;;2.70;2.30;;;17.60;38.70;;;;;;5022123;28;88569;-65
2022/03/03 06:13:40;;;;;;;5.60;3.27;;;17.70;38.80;;;;;;5020758;28;91023;-64
2022/03/03 06:16:21;;;;;;;2.50;2.10;;;17.60;38.70;;;;;;5041394;28;89302;-65
2022/03/03 06:18:49;;;;;;;1.93;1.73;;;17.60;38.80;;;;;;5040341;28;88472;-65
2022/03/03 06:21:18;;;;;;;2.70;2.17;;;17.60;38.70;;;;;;5040437;28;88539;-65
2022/03/03 06:23:46;;;;;;;4.80;2.20;;;17.60;38.80;;;;;;5038380;28;92964;-64
2022/03/03 06:26:16;;;;;;;2.13;1.93;;;17.70;38.80;;;;;;5020075;28;90168;-64
2022/03/03 06:28:44;;;;;;;3.63;2.30;;;17.60;38.80;;;;;;5020285;28;88937;-65
2022/03/03 06:31:14;;;;;;;2.03;1.77;;;17.60;38.80;;;;;;5020208;28;88529;-64
2022/03/03 06:33:42;;;;;;;3.00;1.90;;;17.60;38.80;;;;;;5020422;28;90907;-64
2022/03/03 06:36:11;;;;;;;3.80;2.37;;;17.60;38.80;;;;;;5040309;28;90252;-64
2022/03/03 06:38:39;;;;;;;3.97;2.07;;;17.70;39.50;;;;;;5040244;28;89427;-65
2022/03/03 06:41:07;;;;;;;2.57;2.03;;;17.60;38.80;;;;;;5039497;28;88517;-65
2022/03/03 06:43:35;;;;;;;2.97;2.30;;;17.60;38.80;;;;;;5037428;28;90980;-65
2022/03/03 06:46:04;;;;;;;3.53;2.10;;;17.60;38.80;;;;;;5019535;28;90249;-64
2022/03/03 06:48:33;;;;;;;3.13;2.50;;;17.60;39.40;;;;;;5020197;28;89731;-65
2022/03/03 06:51:03;;;;;;;3.57;2.47;;;17.70;38.80;;;;;;5020146;28;88486;-65
2022/03/03 06:53:34;;;;;;;2.90;1.90;;;17.70;38.80;;;;;;5020287;28;90784;-65
2022/03/03 06:56:04;;;;;;;2.60;2.23;;;17.60;38.70;;;;;;5040013;28;92096;-64
2022/03/03 06:58:32;;;;;;;3.10;2.60;;;17.60;38.70;;;;;;5039500;28;88932;-64
2022/03/03 07:01:03;;;;;;;6.23;2.30;;;17.60;38.70;;;;;;5036427;28;88443;-64
2022/03/03 07:03:33;;;;;;;4.87;2.57;;;17.60;38.70;;;;;;5018310;28;90584;-65
2022/03/03 07:06:01;;;;;;;2.90;2.03;;;17.60;38.70;;;;;;5028498;28;90038;-64
2022/03/03 07:08:29;;;;;;;3.57;2.63;;;17.60;38.70;;;;;;5022255;28;89013;-64
2022/03/03 07:10:57;;;;;;;3.27;1.73;;;17.70;38.70;;;;;;5019883;28;88457;-64
2022/03/03 07:13:25;;;;;;;1.70;1.60;;;17.60;38.60;;;;;;5019820;28;92886;-64
2022/03/03 07:16:01;;;;;;;2.60;2.10;;;17.50;38.50;;;;;;5026080;28;89545;-64
2022/03/03 07:18:34;;;;;;;3.03;1.80;;;17.60;38.60;;;;;;5026955;28;88360;-65
2022/03/03 07:21:04;;;;;;;5.47;2.70;;;17.60;38.60;;;;;;5029120;28;88419;-65
2022/03/03 07:23:36;;;;;;;3.00;2.17;;;17.60;38.60;;;;;;5027614;28;90699;-64
2022/03/03 07:26:05;;;;;;;3.00;2.47;;;17.60;38.60;;;;;;5029418;28;89091;-64
2022/03/03 07:28:34;;;;;;;4.17;2.00;;;17.60;38.60;;;;;;5021758;28;89614;-64
2022/03/03 07:31:03;;;;;;;4.40;2.53;;;17.80;38.70;;;;;;5019372;28;88511;-64
2022/03/03 07:33:51;;;;;;;3.63;2.37;;;17.80;38.70;;;;;;5030809;28;90594;-63
2022/03/03 07:36:20;;;;;;;2.90;2.23;;;17.60;38.50;;;;;;5036727;28;90104;-64
2022/03/03 07:38:51;;;;;;;4.47;2.00;;;17.60;38.60;;;;;;5021307;28;89930;-64
2022/03/03 07:41:19;;;;;;;4.17;2.50;;;17.60;39.30;;;;;;5039151;28;88559;-64
2022/03/03 07:43:48;;;;;;;3.10;2.33;;;17.60;38.80;;;;;;5023731;28;90798;-64
2022/03/03 07:46:17;;;;;;;3.70;2.23;;;17.70;39.00;;;;;;5018982;28;93641;-65
2022/03/03 07:48:46;;;;;;;6.97;2.77;;;17.70;39.30;;;;;;5018904;28;88827;-64
2022/03/03 07:51:15;;;;;;;6.07;2.70;;;17.70;39.40;;;;;;5019039;28;88431;-65
2022/03/03 07:53:43;;;;;;;5.00;3.03;;;17.70;39.70;;;;;;5034064;28;90747;-65
2022/03/03 07:56:13;;;;;;;3.20;2.30;;;17.70;40.00;;;;;;5038948;28;90095;-65
2022/03/03 07:58:44;;;;;;;5.20;2.80;;;17.70;40.20;;;;;;5039021;28;88878;-64
2022/03/03 08:01:13;;;;;;;7.87;2.90;;;17.70;40.40;;;;;;5030719;28;88468;-64
2022/03/03 08:03:42;;;;;;;6.97;3.80;;;17.70;40.60;;;;;;5034040;28;90855;-64
2022/03/03 08:06:10;;;;;;;16.87;5.73;;;17.80;40.90;;;;;;5030268;28;90081;-65
2022/03/03 08:08:39;;;;;;;13.07;6.03;;;17.90;41.40;;;;;;5031656;28;91107;-64
2022/03/03 08:11:09;;;;;;;12.00;6.00;;;17.90;41.60;;;;;;5028397;28;88359;-66
2022/03/03 08:13:37;;;;;;;10.40;5.23;;;18.00;41.80;;;;;;5023164;28;90612;-65
2022/03/03 08:16:05;;;;;;;8.07;5.70;;;18.10;42.00;;;;;;5021587;28;90073;-65
2022/03/03 08:18:35;;;;;;;9.53;4.93;;;18.10;42.10;;;;;;5026034;28;90464;-66
2022/03/03 08:21:03;;;;;;;14.43;5.00;;;18.10;42.10;;;;;;5022757;28;88589;-66
2022/03/03 08:23:31;;;;;;;9.70;4.90;;;18.10;42.20;;;;;;5021684;28;90703;-64
2022/03/03 08:26:01;;;;;;;9.93;4.83;;;18.10;42.30;;;;;;5021559;28;90699;-64
2022/03/03 08:28:31;;;;;;;7.80;4.10;;;18.10;42.30;;;;;;5020385;28;89833;-64
2022/03/03 08:31:00;;;;;;;9.60;4.80;;;18.10;42.40;;;;;;5021391;28;88490;-65
2022/03/03 08:33:36;;;;;;;11.50;4.47;;;18.10;42.40;;;;;;5025484;28;90739;-64
2022/03/03 08:36:05;;;;;;;8.77;4.80;;;18.10;42.40;;;;;;5041914;28;89199;-64
2022/03/03 08:38:35;;;;;;;10.23;4.03;;;18.10;42.40;;;;;;5041867;28;88335;-64
2022/03/03 08:41:05;;;;;;;5.50;3.53;;;18.10;42.40;;;;;;5041617;28;88461;-64
2022/03/03 08:43:34;;;;;;;9.80;4.00;;;18.10;42.40;;;;;;5037302;28;90734;-64
2022/03/03 08:46:03;;;;;;;6.53;4.10;;;18.10;42.40;;;;;;5021123;28;90196;-64
2022/03/03 08:48:32;;;;;;;4.90;3.40;;;18.00;42.30;;;;;;5021783;28;91832;-64
2022/03/03 08:51:01;;;;;;;4.20;3.10;;;18.00;42.30;;;;;;5021862;28;88428;-64
2022/03/03 08:53:29;;;;;;;5.33;3.70;;;18.00;42.20;;;;;;5024204;28;89616;-64
2022/03/03 08:56:00;;;;;;;4.63;3.47;;;18.00;42.20;;;;;;5041606;28;90475;-64
2022/03/03 08:58:30;;;;;;;5.70;3.57;;;18.00;42.20;;;;;;5041721;28;88498;-64
2022/03/03 09:00:58;;;;;;;8.57;3.70;;;18.00;42.80;;;;;;5041828;28;88437;-64
2022/03/03 09:03:26;;;;;;;5.67;3.70;;;18.00;42.10;;;;;;5040276;28;89365;-64
2022/03/03 09:05:56;;;;;;;5.73;3.27;;;18.00;42.00;;;;;;5021412;28;89000;-64
2022/03/03 09:08:24;;;;;;;4.53;3.53;;;18.00;42.00;;;;;;5021654;28;88368;-64
2022/03/03 09:10:52;;;;;;;5.80;2.90;;;18.00;42.00;;;;;;5021724;28;88465;-64
2022/03/03 09:13:20;;;;;;;7.37;3.47;;;17.90;41.90;;;;;;5021083;28;90687;-63
2022/03/03 09:15:50;;;;;;;4.20;2.87;;;17.90;41.90;;;;;;5041405;28;90024;-64
2022/03/03 09:18:18;;;;;;;4.97;3.07;;;17.90;41.90;;;;;;5041611;28;89898;-64
2022/03/03 09:20:46;;;;;;;5.43;3.30;;;17.90;41.80;;;;;;5041530;28;88475;-64
2022/03/03 09:23:14;;;;;;;7.57;3.60;;;17.90;41.80;;;;;;5040762;28;90636;-64
2022/03/03 09:25:43;;;;;;;6.30;3.30;;;17.90;41.70;;;;;;5023748;28;90212;-64
2022/03/03 09:28:11;;;;;;;2.97;2.57;;;17.90;41.70;;;;;;5041264;28;88833;-64
2022/03/03 09:30:45;;;;;;;8.80;3.23;;;17.90;41.60;;;;;;5041459;28;88581;-65
2022/03/03 09:33:14;;;;;;;3.27;2.83;;;17.90;41.60;;;;;;5040918;28;89899;-65
2022/03/03 09:35:42;;;;;;;4.07;3.10;;;17.90;41.60;;;;;;5021103;28;88913;-65
2022/03/03 09:38:10;;;;;;;11.00;3.70;;;17.90;41.50;;;;;;5020897;28;88244;-65
2022/03/03 09:40:38;;;;;;;4.23;2.93;;;17.60;41.30;;;;;;5020444;28;88447;-65
2022/03/03 09:43:07;;;;;;;4.03;3.10;;;17.90;41.50;;;;;;5020376;28;90626;-65
2022/03/03 09:45:36;;;;;;;3.77;2.97;;;17.90;41.50;;;;;;5019616;28;90148;-65
2022/03/03 09:48:07;;;;;;;3.93;2.43;;;17.90;41.40;;;;;;5020801;28;88320;-65
2022/03/03 09:50:37;;;;;;;4.40;2.50;;;17.90;41.40;;;;;;5020963;28;88475;-65
2022/03/03 09:53:06;;;;;;;5.50;3.17;;;17.90;41.40;;;;;;5020597;28;90725;-65
2022/03/03 09:55:35;;;;;;;2.57;2.27;;;17.90;41.30;;;;;;5020363;28;90094;-65
2022/03/03 09:58:03;;;;;;;3.47;2.57;;;17.90;41.30;;;;;;5020695;28;88914;-65
2022/03/03 10:00:33;;;;;;;3.73;2.70;;;17.90;41.30;;;;;;5020796;28;88490;-64
2022/03/03 10:03:08;;;;;;;6.70;2.63;;;17.90;41.30;;;;;;5021040;28;88435;-65
2022/03/03 10:05:38;;;;;;;3.20;2.77;;;17.90;41.20;;;;;;5020362;28;90025;-65
2022/03/03 10:08:08;;;;;;;4.13;2.87;;;17.90;41.10;;;;;;5019993;28;89846;-65
2022/03/03 10:10:37;;;;;;;5.60;2.73;;;17.90;41.10;;;;;;5020420;28;88478;-65
2022/03/03 10:13:05;;;;;;;5.37;3.50;;;18.00;41.10;;;;;;5020206;28;90628;-65
2022/03/03 10:15:33;;;;;;;3.37;2.57;;;17.90;41.00;;;;;;5019743;28;90122;-65
2022/03/03 10:18:02;;;;;;;4.87;2.53;;;17.90;41.00;;;;;;5020005;28;88265;-64
2022/03/03 10:20:30;;;;;;;3.10;2.50;;;17.90;41.00;;;;;;5020597;28;89123;-64
2022/03/03 10:23:00;;;;;;;5.07;2.97;;;17.90;41.00;;;;;;5020388;28;90918;-65
2022/03/03 10:25:30;;;;;;;3.03;2.57;;;17.90;40.90;;;;;;5038253;28;89159;-65
2022/03/03 10:28:06;;;;;;;3.63;2.60;;;17.90;40.80;;;;;;5039880;28;88817;-64
2022/03/03 10:30:51;;;;;;;2.57;2.37;;;17.70;40.70;;;;;;5035861;28;88579;-65
2022/03/03 10:33:20;;;;;;;5.33;2.50;;;17.90;40.80;;;;;;5019587;28;90505;-64
2022/03/03 10:36:01;;;;;;;3.60;2.70;;;17.90;40.80;;;;;;5019297;28;90089;-65
2022/03/03 10:38:31;;;;;;;3.93;2.83;;;17.90;40.80;;;;;;5018639;28;88823;-65
2022/03/03 10:40:59;;;;;;;3.03;2.20;;;17.90;40.70;;;;;;5019729;28;88442;-65
2022/03/03 10:43:27;;;;;;;2.67;2.17;;;17.90;40.70;;;;;;5025498;28;90961;-66
2022/03/03 10:45:56;;;;;;;4.57;2.17;;;17.90;40.70;;;;;;5039979;28;90158;-65
2022/03/03 10:48:30;;;;;;;3.63;2.50;;;17.90;40.70;;;;;;5039399;28;88556;-65
2022/03/03 10:51:00;;;;;;;4.23;2.80;;;17.90;40.70;;;;;;5040330;28;88578;-65
2022/03/03 10:53:30;;;;;;;3.27;2.53;;;17.90;40.60;;;;;;5033927;28;91003;-65
2022/03/03 10:56:02;;;;;;;5.10;2.30;;;17.90;40.60;;;;;;5020079;28;90383;-65
2022/03/03 10:58:53;;;;;;;3.23;2.50;;;17.90;40.60;;;;;;5019979;28;90203;-65
2022/03/03 11:01:22;;;;;;;3.73;2.13;;;17.90;40.60;;;;;;5019726;28;88553;-65
2022/03/03 11:03:51;;;;;;;3.33;2.60;;;18.00;40.60;;;;;;5027430;28;90300;-65
2022/03/03 11:06:20;;;;;;;4.60;2.77;;;18.00;40.60;;;;;;5039248;28;89024;-65
2022/03/03 11:08:51;;;;;;;4.97;2.63;;;18.00;40.60;;;;;;5039542;28;88844;-65
2022/03/03 11:11:19;;;;;;;2.43;2.23;;;18.00;40.60;;;;;;5039786;28;88427;-65
2022/03/03 11:13:49;;;;;;;2.80;1.80;;;18.00;40.50;;;;;;5032292;28;90640;-65
2022/03/03 11:16:18;;;;;;;4.33;2.37;;;18.00;40.50;;;;;;5018904;28;90030;-65
2022/03/03 11:18:46;;;;;;;2.60;1.77;;;18.00;40.50;;;;;;5018790;28;88803;-65
2022/03/03 11:21:14;;;;;;;3.17;2.50;;;18.00;40.50;;;;;;5019055;28;88393;-65
2022/03/03 11:23:43;;;;;;;2.87;2.33;;;18.00;40.50;;;;;;5020351;28;90648;-65
2022/03/03 11:26:21;;;;;;;2.23;1.97;;;18.00;40.50;;;;;;5018774;28;90360;-65
2022/03/03 11:29:00;;;;;;;3.43;2.20;;;18.00;41.10;;;;;;5018999;28;88848;-65
2022/03/03 11:31:31;;;;;;;2.77;2.20;;;18.00;40.50;;;;;;5019275;28;88462;-65
2022/03/03 11:34:19;;;;;;;6.67;2.47;;;18.10;40.60;;;;;;5025400;28;90622;-65
2022/03/03 11:36:47;;;;;;;2.90;2.53;;;18.00;40.60;;;;;;5039646;28;90065;-65
2022/03/03 11:39:35;;;;;;;3.63;2.23;;;18.10;40.60;;;;;;5039416;28;89472;-65
2022/03/03 11:42:21;;;;;;;3.17;2.10;;;18.00;40.60;;;;;;5039182;28;88566;-65
2022/03/03 11:44:49;;;;;;;3.23;2.47;;;18.10;40.70;;;;;;5031678;28;91152;-64
2022/03/03 11:47:19;;;;;;;2.43;2.17;;;18.10;40.70;;;;;;5018580;28;90477;-65
2022/03/03 11:50:13;;;;;;;2.53;1.90;;;18.10;40.70;;;;;;5021275;28;89791;-65
2022/03/03 11:52:41;;;;;;;2.90;2.20;;;18.10;40.80;;;;;;5022483;28;88386;-65
2022/03/03 11:55:33;;;;;;;2.70;2.07;;;18.10;40.70;;;;;;5037399;28;93703;-64
2022/03/03 11:58:07;;;;;;;2.93;2.20;;;18.10;40.80;;;;;;5042222;28;90139;-64
2022/03/03 12:00:36;;;;;;;3.90;2.90;;;18.10;40.80;;;;;;5042296;28;88899;-65
2022/03/03 12:03:05;;;;;;;2.10;1.77;;;18.10;40.80;;;;;;5042949;28;88299;-65
2022/03/03 12:05:43;;;;;;;3.70;2.23;;;18.10;40.80;;;;;;5023949;28;90645;-65
2022/03/03 12:08:31;;;;;;;2.20;2.00;;;18.20;41.00;;;;;;5023387;28;90092;-63
2022/03/03 12:11:01;;;;;;;2.90;2.40;;;18.20;41.00;;;;;;5026744;28;88890;-64
2022/03/03 12:13:32;;;;;;;3.30;2.00;;;18.20;41.00;;;;;;5022422;28;88238;-64
2022/03/03 12:16:20;;;;;;;2.80;2.50;;;18.20;41.00;;;;;;5042295;28;90420;-64
2022/03/03 12:18:49;;;;;;;4.60;2.20;;;18.20;41.00;;;;;;5041713;28;90013;-64
2022/03/03 12:21:24;;;;;;;2.83;2.30;;;18.20;41.00;;;;;;5042055;28;89366;-65
2022/03/03 12:24:08;;;;;;;4.07;2.30;;;18.20;41.10;;;;;;5023775;28;88503;-65
2022/03/03 12:27:15;;;;;;;3.13;2.50;;;18.20;41.00;;;;;;5021108;28;90817;-64
2022/03/03 12:29:52;;;;;;;2.30;2.10;;;18.20;41.00;;;;;;5018188;28;90025;-64
2022/03/03 12:32:41;;;;;;;3.30;2.03;;;18.30;41.10;;;;;;5030162;28;90547;-66
2022/03/03 12:35:24;;;;;;;3.90;2.73;;;18.30;41.10;;;;;;5042071;28;88617;-64
2022/03/03 12:37:52;;;;;;;2.37;1.97;;;18.30;41.20;;;;;;5041716;28;90246;-64
2022/03/03 12:40:21;;;;;;;2.40;2.10;;;18.30;41.30;;;;;;5041750;28;88786;-65
2022/03/03 12:42:49;;;;;;;4.23;2.30;;;18.30;41.10;;;;;;5031933;28;89879;-65
2022/03/03 12:45:19;;;;;;;2.43;2.10;;;18.30;41.10;;;;;;5021755;28;88397;-65
2022/03/03 12:47:48;;;;;;;2.57;1.97;;;18.40;41.20;;;;;;5021452;28;90607;-64
2022/03/03 12:50:18;;;;;;;2.70;1.93;;;18.40;41.10;;;;;;5021696;28;90266;-64
2022/03/03 12:52:56;;;;;;;2.57;1.70;;;18.40;41.10;;;;;;5029479;28;89269;-64
2022/03/03 12:55:29;;;;;;;2.67;1.93;;;18.40;41.10;;;;;;5042182;28;88786;-64
2022/03/03 12:57:57;;;;;;;2.57;1.73;;;18.60;41.20;;;;;;5041486;28;90682;-64
2022/03/03 13:00:27;;;;;;;3.27;2.07;;;18.40;41.10;;;;;;5040719;27;90147;-64
2022/03/03 13:02:57;;;;;;;2.10;1.77;;;18.40;41.10;;;;;;5031836;28;88768;-64
2022/03/03 13:05:33;;;;;;;2.73;2.00;;;18.50;41.10;;;;;;5021114;28;88427;-64